Latest Weather Observations for Mortlake

IDV60801

Issued at 12:32 pm EST Saturday 1 October 2022 (issued every 10 minutes, with the page automatically refreshed every 10 minutes)

About weather observations | Map of weather stations | Latest weather observations for VIC | Other Formats
Station Details ID: 090176 Name: MORTLAKE RACECOURSE Lat: -38.07 Lon: 142.77 Height: 130.0 m
Data from the previous 72 hours. | See also: Recent months at Mortlake
Date/Time
EST
Temp
°C
App
Temp
°C
Dew
Point
°C
Rel
Hum
%
Delta-T
°C
Wind Press
QNH
hPa
Press
MSL
hPa
Rain since
9am
mm
Dir  Spd
km/h
Gust
km/h
Spd
kts
Gust
kts
01/12:30pm 15.6 12.5 8.8 64 3.5 E 15 22 8 12 1023.6 1023.6 0.0
01/12:00pm 15.9 13.0 9.6 66 3.3 E 15 24 8 13 1024.1 1024.1 0.0
01/11:30am 15.0 11.2 8.9 67 3.1 E 19 28 10 15 1024.3 1024.3 0.0
01/11:00am 14.3 10.9 9.3 72 2.6 E 17 24 9 13 1024.6 1024.6 0.0
01/10:30am 14.3 11.4 9.5 73 2.5 E 15 20 8 11 1025.1 1025.1 0.0
01/10:00am 13.2 9.8 9.1 76 2.1 E 17 30 9 16 1025.5 1025.5 0.0
01/09:30am 13.0 9.9 10.2 83 1.5 ENE 17 24 9 13 1025.7 1025.8 0.0
01/09:00am 12.5 9.5 9.3 81 1.6 ENE 15 28 8 15 1025.9 1026.0 0.0
01/08:30am 11.8 9.1 10.5 92 0.7 ENE 15 22 8 12 1026.0 1026.1 0.0
01/08:00am 10.5 8.6 10.5 100 0.0 ENE 11 19 6 10 1026.2 1026.4 0.0
01/07:30am 9.3 9.2 9.3 100 0.0 CALM 0 0 0 0 1026.4 1026.6 0.0
01/07:00am 8.3 7.2 8.3 100 0.0 ENE 4 6 2 3 1026.6 1026.8 0.0
01/06:30am 7.9 6.7 7.9 100 0.0 ENE 4 9 2 5 1026.0 1026.1 0.0
01/06:00am 7.6 6.7 7.6 100 0.0 NNE 2 6 1 3 1025.7 1025.8 0.0
01/05:30am 8.2 6.6 8.2 100 0.0 ENE 6 13 3 7 1025.4 1025.5 0.0
01/05:00am 8.3 5.8 8.3 100 0.0 E 11 19 6 10 1025.1 1025.2 0.0
01/04:30am 8.3 5.4 8.3 100 0.0 E 13 19 7 10 1025.0 1025.1 0.0
01/04:00am 8.4 5.6 8.4 100 0.0 E 13 22 7 12 1025.3 1025.4 0.0
01/03:30am 8.2 5.7 8.2 100 0.0 E 11 19 6 10 1025.3 1025.4 0.0
01/03:00am 8.3 5.4 8.3 100 0.0 E 13 19 7 10 1025.5 1025.6 0.0
01/02:30am 8.7 5.9 8.7 100 0.0 E 13 19 7 10 1025.7 1025.8 0.0
01/02:00am 9.1 6.1 9.1 100 0.0 E 15 20 8 11 1026.1 1026.3 0.0
01/01:30am 9.4 6.1 9.4 100 0.0 E 17 26 9 14 1026.4 1026.6 0.0
01/01:00am 9.6 5.9 9.6 100 0.0 E 19 28 10 15 1026.8 1027.0 0.0
01/12:30am 9.8 6.0 9.8 100 0.0 E 20 30 11 16 1026.9 1027.1 0.0
01/12:00am 10.0 6.4 10.0 100 0.0 E 19 26 10 14 1027.0 1027.2 0.0
 
Date/Time
EST
Temp
°C
App
Temp
°C
Dew
Point
°C
Rel
Hum
%
Delta-T
°C
Wind Press
QNH
hPa
Press
MSL
hPa
Rain since
9am
mm
Dir  Spd
km/h
Gust
km/h
Spd
kts
Gust
kts
30/11:30pm 10.2 6.5 10.2 100 0.0 E 20 33 11 18 1027.1 1027.3 0.0
30/11:00pm 10.4 7.3 10.4 100 0.0 E 17 28 9 15 1027.2 1027.4 0.0
30/10:30pm 10.3 7.2 10.3 100 0.0 ESE 17 26 9 14 1027.3 1027.5 0.0
30/10:00pm 10.2 6.7 10.2 100 0.0 ESE 19 24 10 13 1027.2 1027.4 0.0
30/09:30pm 10.1 6.6 10.1 100 0.0 ESE 19 24 10 13 1027.3 1027.5 0.0
30/09:00pm 10.3 7.2 10.3 100 0.0 ESE 17 22 9 12 1027.2 1027.4 0.0
30/08:30pm 10.3 7.6 10.3 100 0.0 ESE 15 20 8 11 1027.1 1027.3 0.0
30/08:00pm 10.9 8.7 10.9 100 0.0 ESE 13 19 7 10 1026.9 1027.1 0.0
30/07:30pm 11.1 8.6 11.1 100 0.0 ESE 15 19 8 10 1026.9 1027.1 0.0
30/07:00pm 11.7 9.4 11.7 100 0.0 ESE 15 20 8 11 1026.8 1027.0 0.0
30/06:30pm 12.5 10.2 11.7 95 0.4 ESE 15 24 8 13 1026.6 1026.8 0.0
30/06:00pm 13.3 10.2 11.5 89 1.0 ESE 19 28 10 15 1026.5 1026.7 0.0
30/05:30pm 14.1 10.0 11.4 84 1.4 ESE 24 33 13 18 1026.5 1026.7 0.0
30/05:00pm 14.8 11.0 11.0 78 2.0 E 22 32 12 17 1026.4 1026.6 0.0
30/04:30pm 15.2 11.0 11.0 76 2.2 ESE 24 37 13 20 1026.4 1026.6 0.0
30/04:00pm 15.4 10.5 11.2 76 2.2 ESE 28 39 15 21 1026.6 1026.8 0.0
30/03:30pm 14.9 10.7 11.1 78 2.0 ESE 24 33 13 18 1027.0 1027.2 0.0
30/03:00pm 15.3 11.8 10.9 75 2.3 E 20 28 11 15 1027.1 1027.3 0.0
30/02:30pm 15.7 12.0 10.0 69 3.0 E 20 33 11 18 1027.3 1027.5 0.0
30/02:00pm 15.0 11.4 10.0 72 2.6 E 19 30 10 16 1027.6 1027.8 0.0
30/01:30pm 14.6 10.9 10.0 74 2.4 ESE 20 30 11 16 1028.0 1028.2 0.0
30/01:00pm 14.4 10.3 10.0 75 2.3 ESE 22 33 12 18 1028.2 1028.4 0.0
30/12:30pm 13.8 9.9 9.6 76 2.2 E 20 28 11 15 1028.5 1028.7 0.0
30/12:00pm 13.8 10.2 9.8 77 2.1 E 19 30 10 16 1028.7 1028.9 0.0
30/11:30am 13.8 9.0 9.0 73 2.4 E 24 35 13 19 1028.7 1028.9 0.0
30/11:00am 13.8 9.9 9.5 75 2.2 E 20 35 11 19 1028.8 1029.0 0.0
30/10:30am 13.3 9.0 10.8 85 1.3 ESE 24 35 13 19 1029.2 1029.4 0.0
30/10:00am 13.2 8.5 10.7 85 1.3 E 26 35 14 19 1029.4 1029.6 0.0
30/09:30am 12.5 9.2 11.6 94 0.5 E 20 35 11 19 1029.5 1029.7 0.0
30/09:00am 11.7 9.0 11.7 100 0.0 E 17 28 9 15 1029.7 1029.9 0.0
30/08:30am 11.1 7.9 11.1 100 0.0 E 19 32 10 17 1029.5 1029.7 0.0
30/08:00am 10.6 8.7 10.6 100 0.0 ESE 11 19 6 10 1029.3 1029.5 0.0
30/07:30am 9.1 7.6 9.1 100 0.0 SE 7 9 4 5 1029.0 1029.2 0.0
30/07:00am 7.8 6.2 7.8 100 0.0 SE 6 6 3 3 1028.7 1028.9 0.0
30/06:30am 5.9 4.2 5.9 100 0.0 SE 4 6 2 3 1028.4 1028.6 0.0
30/06:00am 6.3 4.3 6.3 100 0.0 SE 6 7 3 4 1028.2 1028.4 0.0
30/05:30am 5.6 3.5 5.6 100 0.0 SE 6 6 3 3 1027.9 1028.1 0.0
30/05:00am 5.7 3.6 5.7 100 0.0 SE 6 7 3 4 1027.8 1028.0 0.0
30/04:30am 5.2 2.8 5.2 100 0.0 SE 7 7 4 4 1027.6 1027.8 0.0
30/04:00am 6.6 5.1 6.6 100 0.0 SE 4 4 2 2 1027.4 1027.6 0.0
30/03:30am 5.7 3.6 5.7 100 0.0 SE 6 7 3 4 1027.4 1027.6 0.0
30/03:00am 6.2 4.2 6.2 100 0.0 SE 6 6 3 3 1027.4 1027.6 0.0
30/02:30am 6.5 4.6 6.5 100 0.0 SE 6 7 3 4 1027.5 1027.7 0.0
30/02:00am 7.4 5.5 7.4 100 0.0 SE 7 7 4 4 1027.7 1027.9 0.0
30/01:30am 8.2 7.0 8.2 100 0.0 ESE 4 6 2 3 1027.9 1028.1 0.0
30/01:00am 8.0 6.4 8.0 100 0.0 ESE 6 6 3 3 1028.0 1028.2 0.0
30/12:30am 9.4 8.2 9.4 100 0.0 SSE 6 7 3 4 1028.0 1028.2 0.0
30/12:00am 9.6 8.4 9.6 100 0.0 SE 6 6 3 3 1027.9 1028.1 0.0
 
Date/Time
EST
Temp
°C
App
Temp
°C
Dew
Point
°C
Rel
Hum
%
Delta-T
°C
Wind Press
QNH
hPa
Press
MSL
hPa
Rain since
9am
mm
Dir  Spd
km/h
Gust
km/h
Spd
kts
Gust
kts
29/11:30pm 8.8 7.4 8.8 100 0.0 SE 6 7 3 4 1028.0 1028.2 0.0
29/11:00pm 10.4 9.4 10.4 100 0.0 SE 6 6 3 3 1028.3 1028.5 0.0
29/10:30pm 10.7 9.8 10.7 100 0.0 SE 6 6 3 3 1028.3 1028.5 0.0
29/10:00pm 10.8 9.9 10.8 100 0.0 SSE 6 7 3 4 1028.3 1028.5 0.0
29/09:30pm 10.7 9.6 10.7 100 0.0 S 7 9 4 5 1028.3 1028.5 0.0
29/09:00pm 10.8 9.7 10.8 100 0.0 SSE 7 9 4 5 1028.0 1028.2 0.0
29/08:30pm 10.5 9.4 10.5 100 0.0 S 7 9 4 5 1027.8 1028.0 0.0
29/08:00pm 10.7 9.2 10.7 100 0.0 S 9 13 5 7 1027.8 1028.0 0.0
29/07:30pm 9.8 8.1 9.8 100 0.0 SSW 9 13 5 7 1027.4 1027.6 0.0
29/07:00pm 10.6 8.7 10.6 100 0.0 S 11 13 6 7 1027.0 1027.2 0.0
29/06:30pm 11.4 9.8 11.4 100 0.0 S 11 17 6 9 1026.8 1027.0 0.0
29/06:00pm 12.3 9.9 11.4 94 0.5 S 15 20 8 11 1026.7 1026.9 0.0
29/05:30pm 13.1 10.2 11.0 87 1.1 S 17 26 9 14 1026.4 1026.6 0.0
29/05:00pm 13.6 10.5 10.4 81 1.7 S 17 24 9 13 1026.3 1026.5 0.0
29/04:30pm 13.4 10.6 11.3 87 1.1 S 17 24 9 13 1026.2 1026.4 0.0
29/04:00pm 14.2 11.3 11.0 81 1.7 S 17 24 9 13 1026.1 1026.3 0.0
29/03:30pm 13.8 10.2 9.8 77 2.1 SSE 19 26 10 14 1026.1 1026.3 0.0
29/03:00pm 14.2 10.5 9.4 73 2.5 SSE 19 26 10 14 1026.1 1026.3 0.0
29/02:30pm 14.5 11.6 9.5 72 2.6 S 15 20 8 11 1026.3 1026.5 0.0
29/02:00pm 13.9 10.2 9.3 74 2.3 SSE 19 24 10 13 1026.3 1026.5 0.0
29/01:30pm 13.7 10.6 9.0 73 2.4 SSE 15 20 8 11 1026.4 1026.6 0.0
29/01:00pm 13.4 9.9 8.7 73 2.4 S 17 20 9 11 1026.5 1026.7 0.0
29/12:30pm 14.3 12.1 9.3 72 2.6 SSE 11 17 6 9 1026.7 1026.9 0.0
29/12:00pm 13.2 9.4 7.6 69 2.7 SSE 17 22 9 12 1026.8 1027.0 0.0
29/11:30am 12.9 9.7 8.6 75 2.2 SSE 15 22 8 12 1026.8 1027.0 0.0
29/11:00am 12.8 9.1 9.3 79 1.8 SSE 19 24 10 13 1026.8 1027.0 0.0
29/10:30am 14.2 11.9 11.7 85 1.3 SE 15 20 8 11 1026.9 1027.1 0.0
29/10:00am 11.4 8.2 11.4 100 0.0 SE 19 28 10 15 1027.0 1027.2 0.0
29/09:30am 12.0 9.3 11.7 98 0.2 SE 17 20 9 11 1027.0 1027.2 0.0
29/09:00am 10.8 9.7 10.8 100 0.0 SSE 7 9 4 5 1027.0 1027.2 0.0
29/08:30am 10.1 9.0 10.1 100 0.0 S 6 7 3 4 1026.9 1027.1 0.0
29/08:00am 9.9 9.2 9.9 100 0.0 S 4 7 2 4 1026.6 1026.8 0.0
29/07:30am 8.9 8.7 8.9 100 0.0 CALM 0 0 0 0 1026.4 1026.6 0.0
29/07:00am 8.1 7.7 8.1 100 0.0 CALM 0 0 0 0 1026.1 1026.3 0.0
29/06:30am 7.0 5.9 7.0 100 0.0 SSW 2 4 1 2 1025.7 1025.8 0.0
29/06:00am 6.5 4.6 6.5 100 0.0 SSW 6 7 3 4 1025.1 1025.2 0.0
29/05:30am 7.2 5.4 7.2 100 0.0 SSW 6 6 3 3 1024.9 1025.0 0.0
29/05:00am 7.4 5.5 7.4 100 0.0 SW 7 9 4 5 1024.8 1024.9 0.0
29/04:30am 8.1 6.5 8.1 100 0.0 S 6 7 3 4 1024.7 1024.8 0.0
29/04:00am 8.1 6.9 8.1 100 0.0 S 4 4 2 2 1024.7 1024.8 0.0
29/03:30am 8.5 7.4 8.5 100 0.0 SW 4 6 2 3 1024.5 1024.6 0.0
29/03:00am 8.4 7.3 8.4 100 0.0 SSW 4 7 2 4 1024.7 1024.8 0.0
29/02:30am 8.7 7.1 8.7 100 0.0 SSW 7 9 4 5 1024.6 1024.7 0.0
29/02:00am 9.1 7.2 9.1 100 0.0 S 9 13 5 7 1024.7 1024.8 0.0
29/01:30am 9.2 7.7 8.6 96 0.3 SW 6 7 3 4 1024.6 1024.7 0.0
29/01:00am 9.1 8.0 8.6 97 0.2 SSW 4 7 2 4 1024.7 1024.8 0.0
29/12:30am 9.3 7.5 7.9 91 0.7 SSE 7 11 4 6 1024.6 1024.7 0.0
29/12:00am 9.5 6.7 8.6 94 0.4 S 13 17 7 9 1024.5 1024.6 0.0
 
Date/Time
EST
Temp
°C
App
Temp
°C
Dew
Point
°C
Rel
Hum
%
Delta-T
°C
Wind Press
QNH
hPa
Press
MSL
hPa
Rain since
9am
mm
Dir  Spd
km/h
Gust
km/h
Spd
kts
Gust
kts
28/11:30pm 9.5 8.0 9.0 97 0.2 S 7 9 4 5 1024.6 1024.7 0.0
28/11:00pm 9.5 8.1 9.5 100 0.0 S 7 9 4 5 1024.5 1024.6 0.0
28/10:30pm 9.6 8.2 9.6 100 0.0 S 7 11 4 6 1024.5 1024.6 0.0
28/10:00pm 9.6 8.4 9.6 100 0.0 S 6 6 3 3 1024.6 1024.7 0.0
28/09:30pm 9.6 8.4 9.6 100 0.0 S 6 9 3 5 1024.6 1024.7 0.0
28/09:00pm 9.5 7.7 9.5 100 0.0 S 9 20 5 11 1024.5 1024.6 0.0
28/08:30pm 9.7 8.0 9.7 100 0.0 S 9 13 5 7 1024.3 1024.4 0.0
28/08:00pm 9.5 6.2 9.5 100 0.0 S 17 24 9 13 1024.0 1024.1 0.0
28/07:30pm 9.8 7.3 9.8 100 0.0 SSE 13 17 7 9 1023.7 1023.8 0.0
28/07:00pm 10.0 6.8 10.0 100 0.0 S 17 24 9 13 1023.3 1023.4 0.0
28/06:30pm 10.2 6.5 10.2 100 0.0 S 20 30 11 16 1022.8 1022.9 0.0
28/06:00pm 10.4 7.0 10.4 100 0.0 S 19 28 10 15 1022.6 1022.7 0.0
28/05:30pm 10.6 7.0 10.6 100 0.0 S 20 28 11 15 1022.2 1022.3 0.0
28/05:00pm 11.4 8.0 11.4 100 0.0 S 20 32 11 17 1022.0 1022.1 0.0
28/04:30pm 11.5 7.8 11.5 100 0.0 S 22 30 12 16 1021.7 1021.9 0.0
28/04:00pm 12.0 8.8 12.0 100 0.0 SSW 20 30 11 16 1021.5 1021.7 0.0
28/03:30pm 13.0 10.0 11.9 93 0.6 S 19 28 10 15 1021.2 1021.4 0.0
28/03:00pm 13.0 9.7 11.7 92 0.7 S 20 26 11 14 1021.2 1021.4 0.0
28/02:30pm 13.7 9.9 9.2 74 2.3 S 19 26 10 14 1021.1 1021.3 0.0
28/02:00pm 12.4 9.1 10.8 90 0.8 S 19 26 10 14 1021.3 1021.5 0.0
28/01:30pm 12.5 9.9 10.7 89 0.9 S 15 20 8 11 1021.2 1021.4 0.0
28/01:00pm 12.3 10.3 11.4 94 0.5 SSE 13 19 7 10 1021.5 1021.7 0.0

Other formats

Comma delimited format used in spreadsheet applications
http://www.bom.gov.au/fwo/IDV60801/IDV60801.94840.axf

JavaScript Object Notation format (JSON) in row-major order
http://www.bom.gov.au/fwo/IDV60801/IDV60801.94840.json

Data quality

Most of these data are generated automatically and are frequently updated. Quality checks on data are not normally performed. It is possible for incorrect values to appear. Refer to information at About Latest Weather Observations and please check the disclaimer before using these data.